createdAt,value
2018-02-16T00:00:17.322Z,0.00
2018-02-16T00:01:17.351Z,0.00
2018-02-16T00:02:17.353Z,0.00
2018-02-16T00:03:17.371Z,0.00
2018-02-16T00:04:17.377Z,0.00
2018-02-16T00:05:17.411Z,0.00
2018-02-16T00:06:17.392Z,0.00
2018-02-16T00:07:17.409Z,0.00
2018-02-16T00:08:17.422Z,0.00
2018-02-16T00:09:17.435Z,0.00
2018-02-16T00:10:17.438Z,0.00
2018-02-16T00:11:17.457Z,0.00
2018-02-16T00:12:17.472Z,0.00
2018-02-16T00:13:17.478Z,0.00
2018-02-16T00:14:17.487Z,0.00
2018-02-16T00:15:17.494Z,0.00
2018-02-16T00:16:17.500Z,0.00
2018-02-16T00:17:17.529Z,0.00
2018-02-16T00:18:17.534Z,0.00
2018-02-16T00:19:17.547Z,0.00
2018-02-16T00:20:17.555Z,0.00
2018-02-16T00:21:17.564Z,0.00
2018-02-16T00:22:17.574Z,0.00
2018-02-16T00:23:17.595Z,0.00
2018-02-16T00:24:17.602Z,0.00
2018-02-16T00:25:17.616Z,0.00
2018-02-16T00:26:17.620Z,0.00
2018-02-16T00:27:17.629Z,0.00
2018-02-16T00:28:17.656Z,0.00
2018-02-16T00:29:17.654Z,0.00
2018-02-16T00:30:17.669Z,0.00
2018-02-16T00:31:17.674Z,0.00
2018-02-16T00:32:17.686Z,0.00
2018-02-16T00:33:17.710Z,0.00
2018-02-16T00:34:17.717Z,0.00
2018-02-16T00:35:17.724Z,0.00
2018-02-16T00:36:17.734Z,0.00
2018-02-16T00:37:17.737Z,0.00
2018-02-16T00:38:17.767Z,0.00
2018-02-16T00:39:17.767Z,0.00
2018-02-16T00:40:17.780Z,0.00
2018-02-16T00:41:17.790Z,0.00
2018-02-16T00:42:17.801Z,0.00
2018-02-16T00:43:17.823Z,0.00
2018-02-16T00:44:17.847Z,0.00
2018-02-16T00:45:17.838Z,0.00
2018-02-16T00:46:17.849Z,0.00
2018-02-16T00:47:17.853Z,0.00
2018-02-16T00:48:17.873Z,0.00
2018-02-16T00:49:17.899Z,0.00
2018-02-16T00:50:17.895Z,0.00
2018-02-16T00:51:17.906Z,0.00
2018-02-16T00:52:17.919Z,0.00
2018-02-16T00:53:17.932Z,0.00
2018-02-16T00:54:17.949Z,0.00
2018-02-16T00:55:17.951Z,0.00
2018-02-16T00:56:17.961Z,0.00
2018-02-16T00:57:17.974Z,0.00
2018-02-16T00:58:17.990Z,0.00
2018-02-16T00:59:18.001Z,0.00
2018-02-16T01:00:18.010Z,0.00
2018-02-16T01:01:18.014Z,0.00
2018-02-16T01:02:18.030Z,0.00
2018-02-16T01:03:18.047Z,0.00
2018-02-16T01:04:18.060Z,0.00
2018-02-16T01:05:18.072Z,0.00
2018-02-16T01:06:18.072Z,0.00
2018-02-16T01:07:18.103Z,0.00
2018-02-16T01:08:18.135Z,0.00
2018-02-16T01:09:18.116Z,0.00
2018-02-16T01:10:18.119Z,0.00
2018-02-16T01:11:18.132Z,0.00
2018-02-16T01:12:18.155Z,0.00
2018-02-16T01:13:18.159Z,0.00
2018-02-16T01:14:18.173Z,0.00
2018-02-16T01:15:18.177Z,0.00
2018-02-16T01:16:18.186Z,0.00
2018-02-16T01:17:18.213Z,0.00
2018-02-16T01:18:18.224Z,0.00
2018-02-16T01:19:18.228Z,0.00
2018-02-16T01:20:18.245Z,0.00
2018-02-16T01:21:18.242Z,0.00
2018-02-16T01:22:18.270Z,0.00
2018-02-16T01:23:18.278Z,0.00
2018-02-16T01:24:18.284Z,0.00
2018-02-16T01:25:18.297Z,0.00
2018-02-16T01:26:18.315Z,0.00
2018-02-16T01:27:18.329Z,0.00
2018-02-16T01:28:18.336Z,0.00
2018-02-16T01:29:18.339Z,0.00
2018-02-16T01:30:18.362Z,0.00
2018-02-16T01:31:18.369Z,0.00
2018-02-16T01:32:18.377Z,0.00
2018-02-16T01:33:18.391Z,0.00
2018-02-16T01:34:18.398Z,0.00
2018-02-16T01:35:18.412Z,0.00
2018-02-16T01:36:18.432Z,0.00
2018-02-16T01:37:18.436Z,0.00
2018-02-16T01:38:18.453Z,0.00
2018-02-16T01:39:18.452Z,0.00
2018-02-16T01:40:18.463Z,0.00
2018-02-16T01:41:18.491Z,0.00
2018-02-16T01:42:18.491Z,0.00
2018-02-16T01:43:18.510Z,0.00
2018-02-16T01:44:18.517Z,0.00
2018-02-16T01:45:18.519Z,0.00
2018-02-16T01:46:18.546Z,0.00
2018-02-16T01:47:18.550Z,0.00
2018-02-16T01:48:18.558Z,0.00
2018-02-16T01:49:18.573Z,0.00
2018-02-16T01:50:18.610Z,0.00
2018-02-16T01:51:18.600Z,0.00
2018-02-16T01:52:18.615Z,0.00
2018-02-16T01:53:18.614Z,0.00
2018-02-16T01:54:18.633Z,0.00
2018-02-16T01:55:18.634Z,0.00
2018-02-16T01:56:18.648Z,0.00
2018-02-16T01:57:18.667Z,0.00
2018-02-16T01:58:18.673Z,0.00
2018-02-16T01:59:18.687Z,0.00
2018-02-16T02:00:18.699Z,0.00
2018-02-16T02:01:18.699Z,0.00
2018-02-16T02:02:18.727Z,0.00
2018-02-16T02:03:18.734Z,0.00
2018-02-16T02:04:18.736Z,0.00
2018-02-16T02:05:18.749Z,0.00
2018-02-16T02:06:18.759Z,0.00
2018-02-16T02:07:18.772Z,0.00
2018-02-16T02:08:18.790Z,0.00
2018-02-16T02:09:18.795Z,0.00
2018-02-16T02:10:18.811Z,0.00
2018-02-16T02:11:18.811Z,0.00
2018-02-16T02:12:18.821Z,0.00
2018-02-16T02:13:18.834Z,0.00
2018-02-16T02:14:18.869Z,0.00
2018-02-16T02:15:18.865Z,0.00
2018-02-16T02:16:18.875Z,0.00
2018-02-16T02:17:18.879Z,0.00
2018-02-16T02:18:18.894Z,0.00
2018-02-16T02:19:18.920Z,0.00
2018-02-16T02:20:18.921Z,0.00
2018-02-16T02:21:18.936Z,0.00
2018-02-16T02:22:18.936Z,0.00
2018-02-16T02:23:18.966Z,0.00
2018-02-16T02:24:18.959Z,0.00
2018-02-16T02:25:18.965Z,0.00
2018-02-16T02:26:18.990Z,0.00
2018-02-16T02:27:18.997Z,0.00
2018-02-16T02:28:19.017Z,0.00
2018-02-16T02:29:19.013Z,0.00
2018-02-16T02:30:19.025Z,0.00
2018-02-16T02:31:19.049Z,0.00
2018-02-16T02:32:19.052Z,0.00
2018-02-16T02:33:19.057Z,0.00
2018-02-16T02:34:19.079Z,0.00
2018-02-16T02:35:19.078Z,0.00
2018-02-16T02:36:19.086Z,0.00
2018-02-16T02:37:19.111Z,0.00
2018-02-16T02:38:19.123Z,0.00
2018-02-16T02:39:19.128Z,0.00
2018-02-16T02:40:19.136Z,0.00
2018-02-16T02:41:19.147Z,0.00
2018-02-16T02:42:19.172Z,0.00
2018-02-16T02:43:19.174Z,0.00
2018-02-16T02:44:19.182Z,0.00
2018-02-16T02:45:19.197Z,0.00
2018-02-16T02:46:19.206Z,0.00
2018-02-16T02:47:19.214Z,0.00
2018-02-16T02:48:19.234Z,0.00
2018-02-16T02:49:19.239Z,0.00
2018-02-16T02:50:19.263Z,0.00
2018-02-16T02:51:19.255Z,0.00
2018-02-16T02:52:19.264Z,0.00
2018-02-16T02:53:19.292Z,0.00
2018-02-16T02:54:19.296Z,0.00
2018-02-16T02:55:19.309Z,0.00
2018-02-16T02:56:19.321Z,0.00
2018-02-16T02:57:19.323Z,0.00
2018-02-16T02:58:19.340Z,0.00
2018-02-16T02:59:19.353Z,0.00
2018-02-16T03:00:19.365Z,0.00
2018-02-16T03:01:19.373Z,0.00
2018-02-16T03:02:19.381Z,0.00
2018-02-16T03:03:19.395Z,0.00
2018-02-16T03:04:19.401Z,0.00
2018-02-16T03:05:19.419Z,0.00
2018-02-16T03:06:19.434Z,0.00
2018-02-16T03:07:19.437Z,0.00
2018-02-16T03:08:19.446Z,0.00
2018-02-16T03:09:19.459Z,0.00
2018-02-16T03:10:19.479Z,0.00
2018-02-16T03:11:19.490Z,0.00
2018-02-16T03:12:19.502Z,0.00
2018-02-16T03:13:19.503Z,0.00
2018-02-16T03:14:19.515Z,0.00
2018-02-16T03:15:19.535Z,0.00
2018-02-16T03:16:19.543Z,0.00
2018-02-16T03:17:19.557Z,0.00
2018-02-16T03:18:19.563Z,0.00
2018-02-16T03:19:19.569Z,0.00
2018-02-16T03:20:19.590Z,0.00
2018-02-16T03:21:19.602Z,0.00
2018-02-16T03:22:19.610Z,0.00
2018-02-16T03:23:19.622Z,0.00
2018-02-16T03:24:19.628Z,0.00
2018-02-16T03:25:19.645Z,0.00
2018-02-16T03:26:19.662Z,0.00
2018-02-16T03:27:19.664Z,0.00
2018-02-16T03:28:19.676Z,0.00
2018-02-16T03:29:19.686Z,0.00
2018-02-16T03:30:19.714Z,0.00
2018-02-16T03:31:19.716Z,0.00
2018-02-16T03:32:19.728Z,0.00
2018-02-16T03:33:19.729Z,0.00
2018-02-16T03:34:19.741Z,0.00
2018-02-16T03:35:19.758Z,0.00
2018-02-16T03:36:19.767Z,0.00
2018-02-16T03:37:19.784Z,0.00
2018-02-16T03:38:19.787Z,0.00
2018-02-16T03:39:19.803Z,0.00
2018-02-16T03:40:19.823Z,0.00
2018-02-16T03:41:19.827Z,0.00
2018-02-16T03:42:19.837Z,0.00
2018-02-16T03:43:19.842Z,0.00
2018-02-16T03:44:19.851Z,0.00
2018-02-16T03:45:19.893Z,0.00
2018-02-16T03:46:19.885Z,0.00
2018-02-16T03:47:19.900Z,0.00
2018-02-16T03:48:19.906Z,0.00
2018-02-16T03:49:19.911Z,0.00
2018-02-16T03:50:19.935Z,0.00
2018-02-16T03:51:19.941Z,0.00
2018-02-16T03:52:19.953Z,0.00
2018-02-16T03:53:19.962Z,0.00
2018-02-16T03:54:19.981Z,0.00
2018-02-16T03:55:19.990Z,0.00
2018-02-16T03:56:20.002Z,0.00
2018-02-16T03:57:20.012Z,0.00
2018-02-16T03:58:20.020Z,0.00
2018-02-16T03:59:20.038Z,0.00
2018-02-16T04:00:20.048Z,0.00
2018-02-16T04:01:20.060Z,0.00
2018-02-16T04:02:20.078Z,0.00
2018-02-16T04:03:20.074Z,0.00
2018-02-16T04:04:20.087Z,0.00
2018-02-16T04:05:20.101Z,0.00
2018-02-16T04:06:20.115Z,0.00
2018-02-16T04:07:20.132Z,0.00
2018-02-16T04:08:20.130Z,0.00
2018-02-16T04:09:20.149Z,0.00
2018-02-16T04:10:20.164Z,0.00
2018-02-16T04:11:20.175Z,0.00
2018-02-16T04:12:20.182Z,0.00
2018-02-16T04:13:20.186Z,0.00
2018-02-16T04:14:20.197Z,0.00
2018-02-16T04:15:20.208Z,0.00
2018-02-16T04:16:20.224Z,0.00
2018-02-16T04:17:20.241Z,0.00
2018-02-16T04:18:20.247Z,0.00
2018-02-16T04:19:20.259Z,0.00
2018-02-16T04:20:20.266Z,0.00
2018-02-16T04:21:20.270Z,0.00
2018-02-16T04:22:20.297Z,0.00
2018-02-16T04:23:20.303Z,0.00
2018-02-16T04:24:20.311Z,0.00
2018-02-16T04:25:20.320Z,0.00
2018-02-16T04:26:20.331Z,0.00
2018-02-16T04:27:20.341Z,0.00
2018-02-16T04:28:20.353Z,0.00
2018-02-16T04:29:20.366Z,0.00
2018-02-16T04:30:20.380Z,0.00
2018-02-16T04:31:20.387Z,0.00
2018-02-16T04:32:20.395Z,0.00
2018-02-16T04:33:20.408Z,0.00
2018-02-16T04:34:20.411Z,0.00
2018-02-16T04:35:20.437Z,0.00
2018-02-16T04:36:20.444Z,0.00
2018-02-16T04:37:20.449Z,0.00
2018-02-16T04:38:20.461Z,0.00
2018-02-16T04:39:20.466Z,0.00
2018-02-16T04:40:20.480Z,0.00
2018-02-16T04:41:20.490Z,0.00
2018-02-16T04:42:20.493Z,0.00
2018-02-16T04:43:20.517Z,0.00
2018-02-16T04:44:20.530Z,0.00
2018-02-16T04:45:20.530Z,0.00
2018-02-16T04:46:20.551Z,0.00
2018-02-16T04:47:20.550Z,0.00
2018-02-16T04:48:20.561Z,0.00
2018-02-16T04:49:20.573Z,0.00
2018-02-16T04:50:20.592Z,0.00
2018-02-16T04:51:20.601Z,0.00
2018-02-16T04:52:20.609Z,0.00
2018-02-16T04:53:20.617Z,0.00
2018-02-16T04:54:20.627Z,0.00
2018-02-16T04:55:20.633Z,0.00
2018-02-16T04:56:20.647Z,0.00
2018-02-16T04:57:20.654Z,0.00
2018-02-16T04:58:20.662Z,0.00
2018-02-16T04:59:20.687Z,0.00
2018-02-16T05:00:20.698Z,0.00
2018-02-16T05:01:20.703Z,0.00
2018-02-16T05:02:20.711Z,0.00
2018-02-16T05:03:20.716Z,0.00
2018-02-16T05:04:20.725Z,0.00
2018-02-16T05:05:20.741Z,0.00
2018-02-16T05:06:20.745Z,0.00
2018-02-16T05:07:20.771Z,0.00
2018-02-16T05:08:20.780Z,0.00
2018-02-16T05:09:20.784Z,0.00
2018-02-16T05:10:20.797Z,0.00
2018-02-16T05:11:20.801Z,0.00
2018-02-16T05:12:20.811Z,0.00
2018-02-16T05:13:20.823Z,0.00
2018-02-16T05:14:20.830Z,0.00
2018-02-16T05:15:20.851Z,0.00
2018-02-16T05:16:20.862Z,0.00
2018-02-16T05:17:20.868Z,0.00
2018-02-16T05:18:20.881Z,0.00
2018-02-16T05:19:20.886Z,0.00
2018-02-16T05:20:20.897Z,0.00
2018-02-16T05:21:20.911Z,0.00
2018-02-16T05:22:20.917Z,0.00
2018-02-16T05:23:20.923Z,0.00
2018-02-16T05:24:20.934Z,0.00
2018-02-16T05:25:20.953Z,0.00
2018-02-16T05:26:20.960Z,0.00
2018-02-16T05:27:20.973Z,0.00
2018-02-16T05:28:20.983Z,0.00
2018-02-16T05:29:20.987Z,0.00
2018-02-16T05:30:21.016Z,0.00
2018-02-16T05:31:21.003Z,0.00
2018-02-16T05:32:21.010Z,0.00
2018-02-16T05:33:21.026Z,0.00
2018-02-16T05:34:21.047Z,0.00
2018-02-16T05:35:21.056Z,0.00
2018-02-16T05:36:21.066Z,0.00
2018-02-16T05:37:21.070Z,0.00
2018-02-16T05:38:21.091Z,0.00
2018-02-16T05:39:21.089Z,0.00
2018-02-16T05:40:21.096Z,0.00
2018-02-16T05:41:21.109Z,0.00
2018-02-16T05:42:21.120Z,0.00
2018-02-16T05:43:21.140Z,0.00
2018-02-16T05:44:21.147Z,0.00
2018-02-16T05:45:21.156Z,0.00
2018-02-16T05:46:21.167Z,4.00
2018-02-16T05:47:21.179Z,4.00
2018-02-16T05:48:21.180Z,0.00
2018-02-16T05:49:21.193Z,4.00
2018-02-16T05:50:21.201Z,4.00
2018-02-16T05:51:21.210Z,4.00
2018-02-16T05:52:21.219Z,4.00
2018-02-16T05:53:21.252Z,4.00
2018-02-16T05:54:21.251Z,4.00
2018-02-16T05:55:21.255Z,8.00
2018-02-16T05:56:21.270Z,8.00
2018-02-16T05:57:21.277Z,12.00
2018-02-16T05:58:21.282Z,12.00
2018-02-16T05:59:21.296Z,16.00
2018-02-16T06:00:21.309Z,20.00
2018-02-16T06:01:21.309Z,24.00
2018-02-16T06:02:21.327Z,24.00
2018-02-16T06:03:21.343Z,32.00
2018-02-16T06:04:21.351Z,36.00
2018-02-16T06:05:21.363Z,40.00
2018-02-16T06:06:21.365Z,48.00
2018-02-16T06:07:21.383Z,56.00
2018-02-16T06:08:21.391Z,60.00
2018-02-16T06:09:21.395Z,72.00
2018-02-16T06:10:21.404Z,80.00
2018-02-16T06:11:21.413Z,88.00
2018-02-16T06:12:21.420Z,104.00
2018-02-16T06:13:21.431Z,116.00
2018-02-16T06:14:21.451Z,132.00
2018-02-16T06:15:21.460Z,148.00
2018-02-16T06:16:21.469Z,164.00
2018-02-16T06:17:21.474Z,180.00
2018-02-16T06:18:21.489Z,200.00
2018-02-16T06:19:21.493Z,220.00
2018-02-16T06:20:21.506Z,244.00
2018-02-16T06:21:21.515Z,264.00
2018-02-16T06:22:21.519Z,288.00
2018-02-16T06:23:21.537Z,316.00
2018-02-16T06:24:21.545Z,340.00
2018-02-16T06:25:21.564Z,372.00
2018-02-16T06:26:21.576Z,400.00
2018-02-16T06:27:21.579Z,428.00
2018-02-16T06:28:21.587Z,464.00
2018-02-16T06:29:21.600Z,492.00
2018-02-16T06:30:21.607Z,528.00
2018-02-16T06:31:21.640Z,560.00
2018-02-16T06:32:21.624Z,596.00
2018-02-16T06:33:21.629Z,632.00
2018-02-16T06:34:21.646Z,672.00
2018-02-16T06:35:21.662Z,712.00
2018-02-16T06:36:21.674Z,748.00
2018-02-16T06:37:21.684Z,788.00
2018-02-16T06:38:21.692Z,832.00
2018-02-16T06:39:21.700Z,872.00
2018-02-16T06:40:21.711Z,916.00
2018-02-16T06:41:21.717Z,952.00
2018-02-16T06:42:21.728Z,996.00
2018-02-16T06:43:21.734Z,1028.00
2018-02-16T06:44:21.745Z,1076.00
2018-02-16T06:45:21.757Z,1112.00
2018-02-16T06:46:21.772Z,1156.00
2018-02-16T06:47:21.785Z,1200.00
2018-02-16T06:48:21.793Z,1248.00
2018-02-16T06:49:21.800Z,1292.00
2018-02-16T06:50:21.809Z,1344.00
2018-02-16T06:51:21.817Z,1388.00
2018-02-16T06:52:21.825Z,1432.00
2018-02-16T06:53:21.842Z,1488.00
2018-02-16T06:54:21.842Z,1528.00
2018-02-16T06:55:21.857Z,1576.00
2018-02-16T06:56:21.869Z,1624.00
2018-02-16T06:57:21.884Z,1676.00
2018-02-16T06:58:21.896Z,1720.00
2018-02-16T06:59:21.897Z,1772.00
2018-02-16T07:00:21.907Z,1812.00
2018-02-16T07:01:21.924Z,1872.00
2018-02-16T07:02:21.924Z,1908.00
2018-02-16T07:03:21.987Z,1956.00
2018-02-16T07:04:21.947Z,1992.00
2018-02-16T07:05:21.955Z,2040.00
2018-02-16T07:06:21.967Z,2080.00
2018-02-16T07:07:21.984Z,2128.00
2018-02-16T07:08:21.992Z,2192.00
2018-02-16T07:09:22.009Z,2232.00
2018-02-16T07:10:22.008Z,2256.00
2018-02-16T07:11:22.021Z,2284.00
2018-02-16T07:12:22.031Z,2308.00
2018-02-16T07:13:22.035Z,2332.00
2018-02-16T07:14:22.053Z,2380.00
2018-02-16T07:15:22.059Z,2420.00
2018-02-16T07:16:22.065Z,2468.00
2018-02-16T07:17:22.092Z,2524.00
2018-02-16T07:18:22.096Z,2564.00
2018-02-16T07:19:22.107Z,2596.00
2018-02-16T07:20:22.117Z,2644.00
2018-02-16T07:21:22.121Z,2688.00
2018-02-16T07:22:22.138Z,2772.00
2018-02-16T07:23:22.140Z,2872.00
2018-02-16T07:24:22.145Z,2976.00
2018-02-16T07:25:22.163Z,3128.00
2018-02-16T07:26:22.177Z,3248.00
2018-02-16T07:27:22.190Z,3232.00
2018-02-16T07:28:22.199Z,3184.00
2018-02-16T07:29:22.209Z,3272.00
2018-02-16T07:30:22.232Z,3540.00
2018-02-16T07:31:22.224Z,4356.00
2018-02-16T07:32:22.229Z,5192.00
2018-02-16T07:33:22.258Z,5148.00
2018-02-16T07:34:22.263Z,4676.00
2018-02-16T07:35:22.281Z,4628.00
2018-02-16T07:36:22.277Z,4356.00
2018-02-16T07:37:22.295Z,3988.00
2018-02-16T07:38:22.297Z,3608.00
2018-02-16T07:39:22.312Z,3292.00
2018-02-16T07:40:22.331Z,3080.00
2018-02-16T07:41:22.340Z,2992.00
2018-02-16T07:42:22.348Z,2936.00
2018-02-16T07:43:22.351Z,2948.00
2018-02-16T07:44:22.360Z,2984.00
2018-02-16T07:45:22.373Z,3076.00
2018-02-16T07:46:22.383Z,3080.00
2018-02-16T07:47:22.405Z,3076.00
2018-02-16T07:48:22.416Z,3272.00
2018-02-16T07:49:22.424Z,3496.00
2018-02-16T07:50:22.433Z,4224.00
2018-02-16T07:51:22.440Z,4952.00
2018-02-16T07:52:22.447Z,5580.00
2018-02-16T07:53:22.478Z,6004.00
2018-02-16T07:54:22.480Z,6132.00
2018-02-16T07:55:22.487Z,6116.00
2018-02-16T07:56:22.502Z,5840.00
2018-02-16T07:57:22.502Z,5160.00
2018-02-16T07:58:22.531Z,4272.00
2018-02-16T07:59:22.533Z,3604.00
2018-02-16T08:00:22.542Z,3180.00
2018-02-16T08:01:22.561Z,3072.00
2018-02-16T08:02:22.562Z,3164.00
2018-02-16T08:03:22.583Z,3252.00
2018-02-16T08:04:22.593Z,3416.00
2018-02-16T08:05:22.597Z,3508.00
2018-02-16T08:06:22.610Z,3644.00
2018-02-16T08:07:22.633Z,3660.00
2018-02-16T08:08:22.625Z,3680.00
2018-02-16T08:09:22.650Z,3716.00
2018-02-16T08:10:22.663Z,3756.00
2018-02-16T08:11:22.671Z,3800.00
2018-02-16T08:12:22.678Z,3840.00
2018-02-16T08:13:22.697Z,3840.00
2018-02-16T08:14:22.711Z,3872.00
2018-02-16T08:15:22.711Z,3912.00
2018-02-16T08:16:22.720Z,3980.00
2018-02-16T08:17:22.739Z,4092.00
2018-02-16T08:18:22.756Z,4332.00
2018-02-16T08:19:22.765Z,4684.00
2018-02-16T08:20:22.774Z,4920.00
2018-02-16T08:21:22.779Z,4840.00
2018-02-16T08:22:22.793Z,4504.00
2018-02-16T08:23:22.809Z,4228.00
2018-02-16T08:24:22.822Z,4016.00
2018-02-16T08:25:22.831Z,3916.00
2018-02-16T08:26:22.837Z,3856.00
2018-02-16T08:27:22.859Z,3940.00
2018-02-16T08:28:22.868Z,3932.00
2018-02-16T08:29:22.878Z,3888.00
2018-02-16T08:30:22.888Z,3884.00
2018-02-16T08:31:22.916Z,3868.00
2018-02-16T08:32:22.915Z,3852.00
2018-02-16T08:33:22.931Z,3880.00
2018-02-16T08:34:22.946Z,3880.00
2018-02-16T08:35:22.945Z,3904.00
2018-02-16T08:36:22.966Z,3916.00
2018-02-16T08:37:22.974Z,3904.00
2018-02-16T08:38:22.984Z,3912.00
2018-02-16T08:39:23.004Z,3924.00
2018-02-16T08:40:23.013Z,3968.00
2018-02-16T08:41:23.026Z,4024.00
2018-02-16T08:42:23.027Z,4052.00
2018-02-16T08:43:23.045Z,4108.00
2018-02-16T08:44:23.065Z,4144.00
2018-02-16T08:45:23.065Z,4152.00
2018-02-16T08:46:23.082Z,4180.00
2018-02-16T08:47:23.099Z,4192.00
2018-02-16T08:48:23.109Z,4224.00
2018-02-16T08:49:23.120Z,4224.00
2018-02-16T08:50:23.131Z,4248.00
2018-02-16T08:51:23.136Z,4228.00
2018-02-16T08:52:23.156Z,4268.00
2018-02-16T08:53:23.162Z,4296.00
2018-02-16T08:54:23.179Z,4320.00
2018-02-16T08:55:23.181Z,4356.00
2018-02-16T08:56:23.200Z,4376.00
2018-02-16T08:57:23.219Z,4364.00
2018-02-16T08:58:23.224Z,4356.00
2018-02-16T08:59:23.247Z,4360.00
2018-02-16T09:00:23.265Z,4344.00
2018-02-16T09:01:23.259Z,4344.00
2018-02-16T09:02:23.272Z,4332.00
2018-02-16T09:03:23.288Z,4336.00
2018-02-16T09:04:23.297Z,4324.00
2018-02-16T09:05:23.319Z,4388.00
2018-02-16T09:06:23.329Z,4392.00
2018-02-16T09:07:23.344Z,4388.00
2018-02-16T09:08:23.350Z,4412.00
2018-02-16T09:09:23.358Z,4412.00
2018-02-16T09:10:23.381Z,4404.00
2018-02-16T09:11:23.386Z,4348.00
2018-02-16T09:12:23.395Z,4328.00
2018-02-16T09:13:23.424Z,4332.00
2018-02-16T09:14:23.463Z,4344.00
2018-02-16T09:15:23.437Z,4356.00
2018-02-16T09:16:23.458Z,4396.00
2018-02-16T09:17:23.468Z,4412.00
2018-02-16T09:18:23.478Z,4444.00
2018-02-16T09:19:23.496Z,4448.00
2018-02-16T09:20:23.505Z,4456.00
2018-02-16T09:21:23.519Z,4452.00
2018-02-16T09:22:23.532Z,4484.00
2018-02-16T09:23:23.549Z,4480.00
2018-02-16T09:24:23.562Z,4512.00
2018-02-16T09:25:23.562Z,4504.00
2018-02-16T09:26:23.589Z,4512.00
2018-02-16T09:27:23.590Z,4520.00
2018-02-16T09:28:23.599Z,4508.00
2018-02-16T09:29:23.624Z,4528.00
2018-02-16T09:30:23.631Z,4520.00
2018-02-16T09:31:23.655Z,4552.00
2018-02-16T09:32:23.665Z,4580.00
2018-02-16T09:33:23.670Z,4604.00
2018-02-16T09:34:23.695Z,4584.00
2018-02-16T09:35:23.698Z,4616.00
2018-02-16T09:36:23.711Z,4672.00
2018-02-16T09:37:23.734Z,4796.00
2018-02-16T09:38:23.739Z,4852.00
2018-02-16T09:39:23.752Z,4792.00
2018-02-16T09:40:23.773Z,4844.00
2018-02-16T09:41:23.782Z,4772.00
2018-02-16T09:42:23.787Z,4720.00
2018-02-16T09:43:23.814Z,4708.00
2018-02-16T09:44:23.822Z,4760.00
2018-02-16T09:45:23.825Z,4884.00
2018-02-16T09:46:23.849Z,5028.00
2018-02-16T09:47:23.855Z,5096.00
2018-02-16T09:48:23.864Z,5228.00
2018-02-16T09:49:23.888Z,5648.00
2018-02-16T09:50:23.896Z,6248.00
2018-02-16T09:51:23.929Z,6816.00
2018-02-16T09:52:23.930Z,6760.00
2018-02-16T09:53:23.937Z,5944.00
2018-02-16T09:54:23.958Z,5712.00
2018-02-16T09:55:23.968Z,6216.00
2018-02-16T09:56:23.972Z,6744.00
2018-02-16T09:57:24.006Z,5720.00
2018-02-16T09:58:24.005Z,4808.00
2018-02-16T09:59:24.041Z,4512.00
2018-02-16T10:00:24.039Z,4084.00
2018-02-16T10:01:24.046Z,4420.00
2018-02-16T10:02:24.073Z,5088.00
2018-02-16T10:03:24.076Z,4880.00
2018-02-16T10:04:24.084Z,4976.00
2018-02-16T10:05:24.108Z,5028.00
2018-02-16T10:06:24.111Z,5104.00
2018-02-16T10:07:24.143Z,5048.00
2018-02-16T10:08:24.149Z,4920.00
2018-02-16T10:09:24.151Z,5064.00
2018-02-16T10:10:24.178Z,5208.00
2018-02-16T10:11:24.183Z,5464.00
2018-02-16T10:12:24.204Z,5476.00
2018-02-16T10:13:24.216Z,5472.00
2018-02-16T10:14:24.222Z,5432.00
2018-02-16T10:15:24.246Z,5456.00
2018-02-16T10:16:24.257Z,5532.00
2018-02-16T10:17:24.272Z,5488.00
2018-02-16T10:18:24.284Z,5520.00
2018-02-16T10:19:24.294Z,5584.00
2018-02-16T10:20:24.315Z,5548.00
2018-02-16T10:21:24.326Z,5680.00
2018-02-16T10:22:24.344Z,6112.00
2018-02-16T10:23:24.360Z,7068.00
2018-02-16T10:24:24.365Z,9972.00
2018-02-16T10:25:24.382Z,10368.00
2018-02-16T10:26:24.392Z,9912.00
2018-02-16T10:27:24.410Z,10184.00
2018-02-16T10:28:24.418Z,10064.00
2018-02-16T10:29:24.444Z,11660.00
2018-02-16T10:30:24.457Z,13204.00
2018-02-16T10:31:24.463Z,12944.00
2018-02-16T10:32:24.488Z,12880.00
2018-02-16T10:33:24.489Z,12940.00
2018-02-16T10:34:24.516Z,14036.00
2018-02-16T10:35:24.520Z,15040.00
2018-02-16T10:36:24.541Z,14960.00
2018-02-16T10:37:24.555Z,15920.00
2018-02-16T10:38:24.571Z,15400.00
2018-02-16T10:39:24.583Z,14928.00
2018-02-16T10:40:24.605Z,14912.00
2018-02-16T10:41:24.609Z,13420.00
2018-02-16T10:42:24.638Z,12416.00
2018-02-16T10:43:24.643Z,12520.00
2018-02-16T10:44:24.663Z,13372.00
2018-02-16T10:45:24.688Z,14320.00
2018-02-16T10:46:24.696Z,15004.00
2018-02-16T10:47:24.723Z,15616.00
2018-02-16T10:48:24.744Z,15964.00
2018-02-16T10:49:24.747Z,16128.00
2018-02-16T10:50:24.761Z,15544.00
2018-02-16T10:51:24.776Z,13932.00
2018-02-16T10:52:24.798Z,12616.00
2018-02-16T10:53:24.813Z,12156.00
2018-02-16T10:54:24.827Z,9496.00
2018-02-16T10:55:24.850Z,9180.00
2018-02-16T10:56:24.860Z,9372.00
2018-02-16T10:57:24.881Z,9244.00
2018-02-16T10:58:24.891Z,9060.00
2018-02-16T10:59:24.909Z,8708.00
2018-02-16T11:00:24.920Z,9956.00
2018-02-16T11:01:24.943Z,9376.00
2018-02-16T11:02:24.964Z,7992.00
2018-02-16T11:03:24.972Z,7748.00
2018-02-16T11:04:24.996Z,8372.00
2018-02-16T11:05:25.002Z,7880.00
2018-02-16T11:06:25.024Z,8944.00
2018-02-16T11:07:25.044Z,11900.00
2018-02-16T11:08:25.052Z,13016.00
2018-02-16T11:09:25.075Z,14772.00
2018-02-16T11:10:25.082Z,13180.00
2018-02-16T11:11:25.110Z,13400.00
2018-02-16T11:12:25.129Z,12568.00
2018-02-16T11:13:25.134Z,11600.00
2018-02-16T11:14:25.161Z,12584.00
2018-02-16T11:15:25.176Z,11752.00
2018-02-16T11:16:25.182Z,12364.00
2018-02-16T11:17:25.196Z,15608.00
2018-02-16T11:18:25.237Z,15556.00
2018-02-16T11:19:25.246Z,14076.00
2018-02-16T11:20:25.282Z,12600.00
2018-02-16T11:21:25.271Z,11876.00
2018-02-16T11:22:25.285Z,14740.00
2018-02-16T11:23:25.297Z,12068.00
2018-02-16T11:24:25.319Z,12312.00
2018-02-16T11:25:25.333Z,15544.00
2018-02-16T11:26:25.351Z,16404.00
2018-02-16T11:27:25.376Z,17536.00
2018-02-16T11:28:25.385Z,17856.00
2018-02-16T11:29:25.399Z,14128.00
2018-02-16T11:30:25.417Z,12844.00
2018-02-16T11:31:25.433Z,10976.00
2018-02-16T11:32:25.456Z,13348.00
2018-02-16T11:33:25.483Z,13320.00
2018-02-16T11:34:25.495Z,11268.00
2018-02-16T11:35:25.509Z,9604.00
2018-02-16T11:36:25.521Z,9908.00
2018-02-16T11:37:25.536Z,8500.00
2018-02-16T11:38:25.560Z,10000.00
2018-02-16T11:39:25.576Z,12932.00
2018-02-16T11:40:25.584Z,12184.00
2018-02-16T11:41:25.598Z,10292.00
2018-02-16T11:42:25.616Z,10436.00
2018-02-16T11:43:25.642Z,10356.00
2018-02-16T11:44:25.650Z,9680.00
2018-02-16T11:45:25.712Z,10112.00
2018-02-16T11:46:25.691Z,12208.00
2018-02-16T11:47:25.701Z,11952.00
2018-02-16T11:48:25.718Z,11056.00
2018-02-16T11:49:25.749Z,11848.00
2018-02-16T11:50:25.753Z,11312.00
2018-02-16T11:51:25.781Z,10276.00
2018-02-16T11:52:25.808Z,8144.00
2018-02-16T11:53:25.804Z,7392.00
2018-02-16T11:54:25.827Z,12888.00
2018-02-16T11:55:25.849Z,9332.00
2018-02-16T11:56:25.857Z,8388.00
2018-02-16T11:57:25.877Z,7080.00
2018-02-16T11:58:25.887Z,8828.00
2018-02-16T11:59:25.909Z,11156.00
2018-02-16T12:00:25.924Z,13932.00
2018-02-16T12:01:25.943Z,14828.00
2018-02-16T12:02:25.957Z,11504.00
2018-02-16T12:03:25.982Z,10816.00
2018-02-16T12:04:25.991Z,12356.00
2018-02-16T12:05:26.008Z,13976.00
2018-02-16T12:06:26.034Z,12144.00
2018-02-16T12:07:26.038Z,10248.00
2018-02-16T12:08:26.060Z,12900.00
2018-02-16T12:09:26.074Z,12856.00
2018-02-16T12:10:26.093Z,14660.00
2018-02-16T12:11:26.118Z,13920.00
2018-02-16T12:12:26.128Z,14812.00
2018-02-16T12:13:26.147Z,17472.00
2018-02-16T12:14:26.166Z,19584.00
2018-02-16T12:15:26.171Z,19104.00
2018-02-16T12:16:26.193Z,18400.00
2018-02-16T12:17:26.218Z,17856.00
2018-02-16T12:18:26.221Z,14164.00
2018-02-16T12:19:26.261Z,14592.00
2018-02-16T12:20:26.269Z,12764.00
2018-02-16T12:21:26.279Z,10688.00
2018-02-16T12:22:26.300Z,7344.00
2018-02-16T12:23:26.320Z,6784.00
2018-02-16T12:24:26.329Z,7776.00
2018-02-16T12:25:26.350Z,11548.00
2018-02-16T12:26:26.372Z,12824.00
2018-02-16T12:27:26.395Z,6988.00
2018-02-16T12:28:26.416Z,8344.00
2018-02-16T12:29:26.422Z,10432.00
2018-02-16T12:30:26.451Z,13784.00
2018-02-16T12:31:26.451Z,13708.00
2018-02-16T12:32:26.470Z,11036.00
2018-02-16T12:33:26.510Z,14856.00
2018-02-16T12:34:26.505Z,13836.00
2018-02-16T12:35:26.532Z,12988.00
2018-02-16T12:36:26.550Z,13208.00